Portada
METAR-TAF:

METAR-TAF

Aeroports :

Recife, Pernambuco, Brasil

latitud: 08-08S, longitud: 034-55W, altitud: 19 m

Observació

L'informe es va fer fa 1 hora i 2 minuts, a les 09:00 UTC
Vent 7 kt del Sud-Est
Temperatura 25°C
Humitat 74%
Pressió 1018 hPa
Visibilitat 10 km o més
Núvols disperses a una alçada de 2500 ft

METAR: SBRF 200900Z 14007KT 9999 SCT025 25/20 Q1018

Hora: 07:02 (10:02 UTC)

Pronòstic

L'informe es va fer fa 6 hores i 2 minuts, a les 04:00 UTC
Pronòstic vàlid del 20 a les 06 UTC al 21 a les 06 UTC
Vent 8 kt del Sud-Est
Visibilitat 10 km o més
Núvols disperses a una alçada de 2000 ft
Evolucionant progressivament
l' 20 a les 13 UTC al 20 a les 15 UTC
Vent 12 kt del Sud
Núvols disperses a una alçada de 2300 ft
Evolucionant progressivament
l' 20 a les 23 UTC al 21 a les 01 UTC
Vent 5 kt del Sud/Sud-Est
Núvols disperses a una alçada de 1700 ft

TAF: SBRF 200400Z 2006/2106 14008KT 9999 SCT020 TN22/2006Z TX26/2015Z BECMG 2013/2015 17012KT SCT023 BECMG 2023/2101 16005KT SCT017 RMK PFM

Observacions i pronòstics meteorològics de més de 4000 aeroports (METAR i TAF).

Les estacions disponibles són els punts grocs i vermells al mapa.

Posi el ratolí al punt desitjat per veure el nom de l'estació.

Feu clic per veure les observacions i els pronòstics meteorològics.

Per canviar el mapa: feu clic els botons verds amb una creu de color negre per apropar; al botó verd amb un guió per allunyar la imatge; o en les fletxes verdes per a mapes adjacents.


METAR-TAF: